Terminal Aerodrome Forecast
Issued by NWS Mt. Holly, NJ

Home | Current Version | Previous Version | Text Only | Print | Product List | Glossary On
Versions: 1 2 3 4 5 6 7 8 9 10 11 12 13 14 15 16 17 18 19 20 21 22 23 24 25 26 27 28 29 30 31
625
FTUS41 KPHI 171400 AAA
TAFPHL
TAF AMD
KPHL 171400Z 1714/1818 19004KT P6SM OVC015
     FM171600 14005KT 5SM -RA BR OVC009
     FM172200 VRB03KT 2SM -DZ BR OVC004
     FM180600 VRB03KT 1SM BR OVC003
      TEMPO 1806/1810 3/4SM BR OVC002
     FM181000 29004KT 2SM BR OVC005
     FM181500 31009KT P6SM OVC050=

USA.gov is the U.S. government's official web portal to all federal, state and local government web resources and services.